Time;durP1;ratioP1;P1;durP2;ratioP2;P2;SDS_P1;SDS_P2;PMS_P1;PMS_P2;Temp;Humidity;BMP_temperature;BMP_pressure;BME280_temperature;BME280_humidity;BME280_pressure;Samples;Min_cycle;Max_cycle;Signal;HPM_P1;HPM_P2
2022/10/27 00:02:23;;;;;;;23.33;21.80;;;;;;;;;;5052202;28;20462;-76
2022/10/27 00:04:50;;;;;;;22.93;21.37;;;;;;;;;;5052488;28;21033;-77
2022/10/27 00:07:17;;;;;;;23.30;21.90;;;;;;;;;;5052783;28;20438;-76
2022/10/27 00:09:45;;;;;;;23.63;21.97;;;;;;;;;;5053037;28;20847;-76
2022/10/27 00:12:12;;;;;;;23.27;21.97;;;;;;;;;;5052520;28;20449;-76
2022/10/27 00:14:39;;;;;;;22.30;21.00;;;;;;;;;;5052638;28;20462;-77
2022/10/27 00:17:08;;;;;;;23.20;21.70;;;;;;;;;;5052211;28;20474;-76
2022/10/27 00:19:36;;;;;;;23.67;22.07;;;;;;;;;;5052256;28;20429;-77
2022/10/27 00:22:03;;;;;;;22.80;21.50;;;;;;;;;;5051684;28;20421;-78
2022/10/27 00:24:30;;;;;;;23.23;21.73;;;;;;;;;;5052484;28;20949;-76
2022/10/27 00:26:58;;;;;;;22.30;20.70;;;;;;;;;;5052535;28;21161;-76
2022/10/27 00:29:25;;;;;;;22.00;20.80;;;;;;;;;;5052335;28;20513;-77
2022/10/27 00:31:53;;;;;;;21.93;20.53;;;;;;;;;;5052177;28;20410;-77
2022/10/27 00:34:22;;;;;;;23.93;22.30;;;;;;;;;;5052162;28;20436;-76
2022/10/27 00:36:49;;;;;;;23.13;21.20;;;;;;;;;;5052470;28;20447;-76
2022/10/27 00:39:16;;;;;;;23.03;21.53;;;;;;;;;;5052476;28;20443;-77
2022/10/27 00:41:44;;;;;;;22.93;21.40;;;;;;;;;;5051291;28;20888;-78
2022/10/27 00:44:35;;;;;;;24.03;22.57;;;;;;;;;;5052250;28;20466;-77
2022/10/27 00:47:05;;;;;;;23.37;21.57;;;;;;;;;;5037550;28;20564;-76
2022/10/27 00:49:36;;;;;;;24.37;22.50;;;;;;;;;;5052323;28;20472;-76
2022/10/27 00:52:05;;;;;;;23.03;21.03;;;;;;;;;;5052016;28;20414;-77
2022/10/27 00:54:34;;;;;;;22.90;21.50;;;;;;;;;;5051611;28;20457;-77
2022/10/27 00:57:01;;;;;;;23.30;21.70;;;;;;;;;;5052492;28;20428;-76
2022/10/27 00:59:29;;;;;;;22.13;20.93;;;;;;;;;;5052303;28;20424;-76
2022/10/27 01:01:56;;;;;;;22.77;21.27;;;;;;;;;;5052131;28;20446;-76
2022/10/27 01:04:28;;;;;;;23.03;21.63;;;;;;;;;;5051657;28;20490;-77
2022/10/27 01:06:57;;;;;;;23.37;21.63;;;;;;;;;;5052383;28;20412;-76
2022/10/27 01:09:24;;;;;;;23.67;21.97;;;;;;;;;;5052291;28;20460;-77
2022/10/27 01:11:51;;;;;;;23.47;22.17;;;;;;;;;;5051712;28;20461;-77
2022/10/27 01:14:19;;;;;;;23.00;21.10;;;;;;;;;;5051635;28;20460;-76
2022/10/27 01:16:49;;;;;;;23.13;21.63;;;;;;;;;;5052023;28;20434;-77
2022/10/27 01:19:28;;;;;;;21.43;19.93;;;;;;;;;;5052187;28;20457;-77
2022/10/27 01:22:02;;;;;;;22.00;20.70;;;;;;;;;;5051920;28;20432;-77
2022/10/27 01:24:49;;;;;;;23.10;21.47;;;;;;;;;;5051724;28;20494;-76
2022/10/27 01:27:25;;;;;;;22.23;21.03;;;;;;;;;;5052375;28;20499;-77
2022/10/27 01:30:07;;;;;;;22.90;21.70;;;;;;;;;;5051945;28;20501;-76
2022/10/27 01:32:43;;;;;;;23.80;21.67;;;;;;;;;;5049291;28;20433;-76
2022/10/27 01:35:14;;;;;;;22.37;20.40;;;;;;;;;;5055439;28;20426;-77
2022/10/27 01:37:44;;;;;;;22.40;20.90;;;;;;;;;;5055747;28;20397;-76
2022/10/27 01:40:15;;;;;;;22.50;20.80;;;;;;;;;;5055782;28;20822;-77
2022/10/27 01:42:46;;;;;;;23.10;21.60;;;;;;;;;;5054477;28;20498;-77
2022/10/27 01:45:15;;;;;;;22.70;21.00;;;;;;;;;;5055500;28;20413;-76
2022/10/27 01:47:44;;;;;;;22.47;20.77;;;;;;;;;;5055647;28;20451;-77
2022/10/27 01:50:11;;;;;;;21.30;19.97;;;;;;;;;;5054648;28;20505;-77
2022/10/27 01:52:43;;;;;;;28.07;23.70;;;;;;;;;;5055068;28;20437;-76
2022/10/27 01:55:13;;;;;;;24.37;22.60;;;;;;;;;;5055246;28;20416;-76
2022/10/27 01:57:45;;;;;;;21.30;20.00;;;;;;;;;;5055518;28;20451;-76
2022/10/27 02:00:13;;;;;;;23.13;21.10;;;;;;;;;;5054632;28;20465;-77
2022/10/27 02:02:44;;;;;;;23.00;21.07;;;;;;;;;;5054608;28;20441;-76
2022/10/27 02:05:15;;;;;;;22.03;20.67;;;;;;;;;;5055179;28;20438;-76
2022/10/27 02:07:47;;;;;;;23.33;21.47;;;;;;;;;;5055054;28;20431;-77
2022/10/27 02:10:17;;;;;;;21.37;20.13;;;;;;;;;;5054996;28;20808;-77
2022/10/27 02:12:45;;;;;;;23.00;21.00;;;;;;;;;;5054085;28;20516;-76
2022/10/27 02:15:18;;;;;;;22.50;21.10;;;;;;;;;;5054670;28;20455;-76
2022/10/27 02:17:47;;;;;;;23.30;21.53;;;;;;;;;;5054791;28;20416;-76
2022/10/27 02:20:19;;;;;;;22.03;20.33;;;;;;;;;;5054971;28;20423;-77
2022/10/27 02:22:47;;;;;;;21.23;19.90;;;;;;;;;;5054108;28;20966;-77
2022/10/27 02:25:14;;;;;;;21.43;19.83;;;;;;;;;;5053993;28;20486;-78
2022/10/27 02:27:44;;;;;;;22.00;20.50;;;;;;;;;;5054800;28;20792;-77
2022/10/27 02:30:12;;;;;;;22.13;20.40;;;;;;;;;;5054279;28;20490;-76
2022/10/27 02:32:40;;;;;;;25.63;23.27;;;;;;;;;;5054146;28;20477;-76
2022/10/27 02:35:10;;;;;;;23.50;21.77;;;;;;;;;;5054754;28;20417;-77
2022/10/27 02:37:40;;;;;;;22.40;20.70;;;;;;;;;;5054704;28;20446;-78
2022/10/27 02:40:08;;;;;;;22.23;20.53;;;;;;;;;;5054051;28;20470;-76
2022/10/27 02:42:35;;;;;;;24.00;22.13;;;;;;;;;;5053807;28;20436;-78
2022/10/27 02:45:03;;;;;;;22.90;21.17;;;;;;;;;;5054531;28;20431;-77
2022/10/27 02:47:30;;;;;;;22.00;20.80;;;;;;;;;;5054159;28;20431;-77
2022/10/27 02:49:58;;;;;;;21.57;20.37;;;;;;;;;;5053354;28;20449;-76
2022/10/27 02:52:25;;;;;;;23.20;21.53;;;;;;;;;;5053667;28;20858;-78
2022/10/27 02:54:54;;;;;;;23.10;21.40;;;;;;;;;;5053864;28;20456;-76
2022/10/27 02:57:21;;;;;;;23.77;22.00;;;;;;;;;;5054236;28;20433;-77
2022/10/27 02:59:48;;;;;;;22.87;21.07;;;;;;;;;;5053363;28;20466;-77
2022/10/27 03:02:15;;;;;;;22.67;21.37;;;;;;;;;;5053433;28;20446;-77
2022/10/27 03:04:43;;;;;;;22.13;20.70;;;;;;;;;;5054032;28;20456;-76
2022/10/27 03:07:10;;;;;;;23.30;21.57;;;;;;;;;;5054243;28;20816;-76
2022/10/27 03:09:37;;;;;;;24.67;22.87;;;;;;;;;;5054010;28;20850;-76
2022/10/27 03:12:07;;;;;;;24.10;22.60;;;;;;;;;;5053327;28;20470;-77
2022/10/27 03:14:34;;;;;;;24.27;22.70;;;;;;;;;;5052878;28;20513;-77
2022/10/27 03:17:01;;;;;;;24.33;22.80;;;;;;;;;;5054081;28;20425;-77
2022/10/27 03:19:28;;;;;;;23.40;21.90;;;;;;;;;;5053971;28;20454;-78
2022/10/27 03:21:56;;;;;;;24.57;23.00;;;;;;;;;;5053128;28;20446;-76
2022/10/27 03:24:23;;;;;;;24.00;22.17;;;;;;;;;;5052765;28;20490;-77
2022/10/27 03:26:51;;;;;;;23.77;22.23;;;;;;;;;;5053409;28;20448;-77
2022/10/27 03:29:19;;;;;;;25.57;23.33;;;;;;;;;;5053428;28;20432;-76
2022/10/27 03:31:47;;;;;;;26.03;24.20;;;;;;;;;;5053235;28;20449;-78
2022/10/27 03:34:14;;;;;;;23.50;22.00;;;;;;;;;;5053349;28;20455;-76
2022/10/27 03:36:41;;;;;;;23.77;22.30;;;;;;;;;;5052823;28;20440;-77
2022/10/27 03:39:08;;;;;;;24.53;22.90;;;;;;;;;;5053467;28;20429;-76
2022/10/27 03:41:36;;;;;;;23.30;21.70;;;;;;;;;;5052543;28;20421;-76
2022/10/27 03:44:03;;;;;;;24.10;22.70;;;;;;;;;;5053198;28;20445;-76
2022/10/27 03:46:32;;;;;;;23.50;22.03;;;;;;;;;;5052882;28;20466;-76
2022/10/27 03:49:00;;;;;;;24.73;22.87;;;;;;;;;;5052798;28;20453;-78
2022/10/27 03:51:27;;;;;;;23.43;21.73;;;;;;;;;;5052593;28;20823;-77
2022/10/27 03:53:55;;;;;;;22.70;21.13;;;;;;;;;;5052997;28;20565;-77
2022/10/27 03:56:22;;;;;;;22.40;21.10;;;;;;;;;;5052566;28;20454;-76
2022/10/27 03:58:49;;;;;;;24.27;22.57;;;;;;;;;;5052416;28;20470;-77
2022/10/27 04:01:16;;;;;;;22.80;21.20;;;;;;;;;;5052383;28;20447;-77
2022/10/27 04:03:47;;;;;;;23.60;21.97;;;;;;;;;;5052530;28;20869;-77
2022/10/27 04:06:15;;;;;;;24.37;22.40;;;;;;;;;;5052883;28;20409;-77
2022/10/27 04:08:43;;;;;;;24.70;22.87;;;;;;;;;;5052655;28;20457;-76
2022/10/27 04:11:10;;;;;;;23.50;21.90;;;;;;;;;;5052510;28;20473;-78
2022/10/27 04:13:37;;;;;;;24.90;22.97;;;;;;;;;;5052653;28;20473;-77
2022/10/27 04:16:05;;;;;;;26.33;22.10;;;;;;;;;;5052624;28;20454;-77
2022/10/27 04:18:32;;;;;;;23.53;21.93;;;;;;;;;;5052883;28;20433;-77
2022/10/27 04:21:04;;;;;;;22.40;21.10;;;;;;;;;;5052383;28;20424;-76
2022/10/27 04:23:32;;;;;;;22.83;21.33;;;;;;;;;;5051842;28;21045;-77
2022/10/27 04:25:59;;;;;;;21.87;20.67;;;;;;;;;;5052518;28;20454;-76
2022/10/27 04:28:27;;;;;;;22.83;21.33;;;;;;;;;;5052709;28;20450;-77
2022/10/27 04:30:55;;;;;;;24.00;21.67;;;;;;;;;;5052620;28;20909;-77
2022/10/27 04:33:22;;;;;;;23.87;22.43;;;;;;;;;;5052642;28;20481;-77
2022/10/27 04:35:50;;;;;;;24.27;22.57;;;;;;;;;;5052002;28;20470;-76
2022/10/27 04:38:18;;;;;;;24.77;23.17;;;;;;;;;;5053012;28;20778;-78
2022/10/27 04:40:46;;;;;;;25.03;23.33;;;;;;;;;;5052633;28;20417;-77
2022/10/27 04:43:13;;;;;;;27.30;25.00;;;;;;;;;;5051667;28;20445;-76
2022/10/27 04:45:41;;;;;;;25.43;23.63;;;;;;;;;;5052764;28;20756;-77
2022/10/27 04:48:09;;;;;;;24.80;23.17;;;;;;;;;;5052393;28;20462;-78
2022/10/27 04:50:36;;;;;;;24.60;22.70;;;;;;;;;;5052523;28;20446;-78
2022/10/27 04:53:04;;;;;;;23.70;22.30;;;;;;;;;;5051537;28;20565;-77
2022/10/27 04:55:33;;;;;;;24.10;22.50;;;;;;;;;;5052519;28;20436;-76
2022/10/27 04:58:01;;;;;;;24.70;23.00;;;;;;;;;;5052264;28;20783;-76
2022/10/27 05:00:29;;;;;;;24.73;22.83;;;;;;;;;;5051675;28;20957;-77
2022/10/27 05:02:57;;;;;;;24.33;22.67;;;;;;;;;;5051433;28;20837;-77
2022/10/27 05:05:26;;;;;;;24.27;22.77;;;;;;;;;;5052248;28;20428;-77
2022/10/27 05:07:53;;;;;;;25.03;23.33;;;;;;;;;;5052843;28;20868;-77
2022/10/27 05:10:21;;;;;;;26.07;24.07;;;;;;;;;;5055533;28;20878;-77
2022/10/27 05:12:49;;;;;;;26.10;23.77;;;;;;;;;;5055603;28;20449;-77
2022/10/27 05:15:17;;;;;;;24.73;23.23;;;;;;;;;;5055930;28;20446;-76
2022/10/27 05:17:44;;;;;;;28.10;26.10;;;;;;;;;;5057316;28;20458;-85
2022/10/27 05:20:12;;;;;;;23.93;22.43;;;;;;;;;;5060321;28;20467;-83
2022/10/27 05:22:40;;;;;;;22.80;21.30;;;;;;;;;;5061521;28;20466;-83
2022/10/27 05:25:08;;;;;;;25.10;23.33;;;;;;;;;;5061672;28;20451;-84
2022/10/27 05:27:36;;;;;;;24.77;23.17;;;;;;;;;;5063042;28;20431;-85
2022/10/27 05:30:05;;;;;;;26.37;24.67;;;;;;;;;;5061472;28;20442;-81
2022/10/27 05:32:32;;;;;;;27.10;24.90;;;;;;;;;;5060201;28;20417;-83
2022/10/27 05:35:00;;;;;;;26.60;24.80;;;;;;;;;;5059640;28;20450;-85
2022/10/27 05:37:27;;;;;;;25.67;24.17;;;;;;;;;;5055686;28;20466;-78
2022/10/27 05:39:54;;;;;;;26.23;24.67;;;;;;;;;;5055530;28;20428;-78
2022/10/27 05:42:22;;;;;;;26.23;24.60;;;;;;;;;;5054884;28;20432;-78
2022/10/27 05:44:49;;;;;;;24.77;23.20;;;;;;;;;;5055612;28;20451;-79
2022/10/27 05:47:18;;;;;;;24.93;23.50;;;;;;;;;;5055460;28;20954;-78
2022/10/27 05:49:46;;;;;;;24.53;23.00;;;;;;;;;;5055724;28;20453;-78
2022/10/27 05:52:13;;;;;;;25.07;23.30;;;;;;;;;;5055184;28;21025;-77
2022/10/27 05:54:40;;;;;;;23.70;22.37;;;;;;;;;;5056517;28;20812;-78
2022/10/27 05:57:08;;;;;;;24.80;23.10;;;;;;;;;;5056541;28;20424;-77
2022/10/27 05:59:35;;;;;;;25.07;23.37;;;;;;;;;;5055437;28;20457;-77
2022/10/27 06:02:02;;;;;;;24.10;22.70;;;;;;;;;;5054388;28;20481;-78
2022/10/27 06:04:31;;;;;;;24.87;23.37;;;;;;;;;;5055247;28;20464;-78
2022/10/27 06:06:59;;;;;;;24.00;22.60;;;;;;;;;;5056117;28;20514;-78
2022/10/27 06:09:27;;;;;;;25.87;24.00;;;;;;;;;;5055286;28;20428;-78
2022/10/27 06:11:54;;;;;;;24.07;22.77;;;;;;;;;;5054313;28;21020;-78
2022/10/27 06:14:21;;;;;;;22.90;21.50;;;;;;;;;;5054962;28;20440;-76
2022/10/27 06:16:48;;;;;;;23.10;21.80;;;;;;;;;;5054771;28;20454;-76
2022/10/27 06:19:16;;;;;;;24.20;22.77;;;;;;;;;;5054259;28;20926;-77
2022/10/27 06:21:44;;;;;;;22.87;21.40;;;;;;;;;;5054522;28;20779;-76
2022/10/27 06:24:12;;;;;;;22.80;21.50;;;;;;;;;;5054259;28;20497;-76
2022/10/27 06:26:39;;;;;;;24.77;23.27;;;;;;;;;;5054472;28;20437;-76
2022/10/27 06:29:07;;;;;;;22.60;21.30;;;;;;;;;;5054349;28;20927;-76
2022/10/27 06:31:34;;;;;;;24.20;22.80;;;;;;;;;;5054058;28;20478;-75
2022/10/27 06:34:01;;;;;;;22.93;21.73;;;;;;;;;;5054361;28;20449;-75
2022/10/27 06:36:29;;;;;;;24.03;22.63;;;;;;;;;;5053903;28;20474;-76
2022/10/27 06:38:58;;;;;;;24.17;22.60;;;;;;;;;;5054285;28;20440;-76
2022/10/27 06:41:25;;;;;;;23.23;21.67;;;;;;;;;;5053842;28;20989;-76
2022/10/27 06:43:53;;;;;;;22.90;21.43;;;;;;;;;;5053786;28;20523;-76
2022/10/27 06:46:20;;;;;;;25.13;22.87;;;;;;;;;;5053944;28;20413;-76
2022/10/27 06:48:47;;;;;;;23.20;21.90;;;;;;;;;;5053946;28;20429;-77
2022/10/27 06:51:14;;;;;;;25.73;23.47;;;;;;;;;;5053426;28;20486;-77
2022/10/27 06:53:43;;;;;;;25.43;23.50;;;;;;;;;;5057287;28;20453;-83
2022/10/27 06:56:12;;;;;;;24.10;22.60;;;;;;;;;;5060764;28;20457;-82
2022/10/27 06:58:39;;;;;;;23.53;22.10;;;;;;;;;;5059620;28;20452;-86
2022/10/27 07:01:07;;;;;;;26.57;24.60;;;;;;;;;;5061354;28;20451;-86
2022/10/27 07:03:36;;;;;;;25.90;23.70;;;;;;;;;;5060624;28;20476;-85
2022/10/27 07:06:04;;;;;;;26.83;24.50;;;;;;;;;;5060958;28;20484;-85
2022/10/27 07:08:32;;;;;;;25.97;24.47;;;;;;;;;;5059835;28;20428;-85
2022/10/27 07:10:59;;;;;;;25.80;24.20;;;;;;;;;;5059523;28;20453;-86
2022/10/27 07:13:28;;;;;;;26.00;24.60;;;;;;;;;;5060263;28;20468;-85
2022/10/27 07:15:55;;;;;;;25.17;23.47;;;;;;;;;;5058224;28;20957;-83
2022/10/27 07:18:23;;;;;;;25.57;23.37;;;;;;;;;;5059664;28;20450;-84
2022/10/27 07:20:52;;;;;;;23.67;22.37;;;;;;;;;;5060174;28;20443;-83
2022/10/27 07:23:19;;;;;;;25.67;23.70;;;;;;;;;;5059965;28;20727;-83
2022/10/27 07:25:48;;;;;;;27.23;25.43;;;;;;;;;;5059858;28;20437;-82
2022/10/27 07:28:16;;;;;;;26.30;24.50;;;;;;;;;;5056864;28;20454;-82
2022/10/27 07:30:47;;;;;;;26.20;24.57;;;;;;;;;;5057298;28;20433;-81
2022/10/27 07:33:15;;;;;;;25.00;23.33;;;;;;;;;;5057836;28;20478;-82
2022/10/27 07:35:42;;;;;;;26.60;25.00;;;;;;;;;;5059508;28;20442;-80
2022/10/27 07:38:09;;;;;;;24.23;22.83;;;;;;;;;;5060346;28;20459;-81
2022/10/27 07:40:37;;;;;;;26.17;24.47;;;;;;;;;;5061613;28;20429;-82
2022/10/27 07:43:04;;;;;;;27.30;25.53;;;;;;;;;;5058294;28;20487;-81
2022/10/27 07:45:31;;;;;;;25.30;23.80;;;;;;;;;;5058037;28;20812;-81
2022/10/27 07:48:00;;;;;;;26.43;24.63;;;;;;;;;;5054514;28;20549;-81
2022/10/27 07:50:29;;;;;;;29.77;27.60;;;;;;;;;;5054346;28;20450;-84
2022/10/27 07:52:57;;;;;;;29.40;27.30;;;;;;;;;;5054884;28;20970;-76
2022/10/27 07:55:25;;;;;;;31.20;28.47;;;;;;;;;;5052906;28;20470;-76
2022/10/27 07:57:58;;;;;;;26.90;24.70;;;;;;;;;;5056160;28;20458;-85
2022/10/27 08:00:26;;;;;;;25.57;23.80;;;;;;;;;;5054722;28;20494;-76
2022/10/27 08:02:53;;;;;;;27.00;25.10;;;;;;;;;;5054057;28;20448;-85
2022/10/27 08:05:23;;;;;;;26.07;23.83;;;;;;;;;;5057198;28;20433;-77
2022/10/27 08:07:50;;;;;;;25.17;23.37;;;;;;;;;;5056449;28;20443;-77
2022/10/27 08:10:17;;;;;;;25.60;23.87;;;;;;;;;;5052566;28;20450;-77
2022/10/27 08:12:45;;;;;;;26.97;24.57;;;;;;;;;;5051440;28;20573;-77
2022/10/27 08:15:12;;;;;;;26.27;24.00;;;;;;;;;;5052640;28;20409;-77
2022/10/27 08:17:40;;;;;;;25.90;24.20;;;;;;;;;;5052946;28;20927;-84
2022/10/27 08:20:08;;;;;;;25.33;23.60;;;;;;;;;;5057008;28;20421;-76
2022/10/27 08:22:37;;;;;;;26.47;24.50;;;;;;;;;;5054306;28;20423;-76
2022/10/27 08:25:05;;;;;;;23.90;21.90;;;;;;;;;;5059048;28;20475;-85
2022/10/27 08:27:33;;;;;;;23.63;21.93;;;;;;;;;;5061603;28;20425;-85
2022/10/27 08:30:00;;;;;;;22.67;21.23;;;;;;;;;;5057357;28;20421;-85
2022/10/27 08:32:28;;;;;;;22.03;20.83;;;;;;;;;;5056622;28;20535;-79
2022/10/27 08:34:55;;;;;;;22.40;21.10;;;;;;;;;;5054957;28;20450;-82
2022/10/27 08:37:22;;;;;;;23.00;21.40;;;;;;;;;;5044050;28;20426;-82
2022/10/27 08:39:51;;;;;;;21.80;20.40;;;;;;;;;;5038673;28;20447;-85
2022/10/27 08:42:33;;;;;;;21.87;20.47;;;;;;;;;;5040263;28;20444;-85
2022/10/27 08:45:02;;;;;;;21.40;20.00;;;;;;;;;;5044612;28;20439;-84
2022/10/27 08:47:29;;;;;;;22.77;21.17;;;;;;;;;;5044303;28;20471;-84
2022/10/27 08:49:59;;;;;;;21.93;20.53;;;;;;;;;;5038679;28;20456;-76
2022/10/27 08:52:29;;;;;;;21.00;19.90;;;;;;;;;;5035933;28;20455;-77
2022/10/27 08:55:00;;;;;;;20.37;19.40;;;;;;;;;;5037510;28;20422;-79
2022/10/27 08:57:28;;;;;;;21.27;20.13;;;;;;;;;;5036437;28;20922;-76
2022/10/27 08:59:56;;;;;;;21.30;20.20;;;;;;;;;;5036431;28;20433;-77
2022/10/27 09:02:29;;;;;;;19.97;19.07;;;;;;;;;;5035232;28;20443;-78
2022/10/27 09:05:13;;;;;;;19.13;18.10;;;;;;;;;;5036617;28;20407;-76
2022/10/27 09:07:43;;;;;;;19.40;18.40;;;;;;;;;;5036133;28;20435;-76
2022/10/27 09:10:19;;;;;;;19.80;18.43;;;;;;;;;;5036175;28;20441;-78
2022/10/27 09:12:58;;;;;;;19.03;18.03;;;;;;;;;;5035261;28;20966;-77
2022/10/27 09:15:34;;;;;;;19.63;18.63;;;;;;;;;;5036376;28;20898;-76
2022/10/27 09:18:03;;;;;;;20.00;18.63;;;;;;;;;;5035842;28;20468;-77
2022/10/27 09:20:33;;;;;;;20.90;19.50;;;;;;;;;;5035591;28;20426;-76
2022/10/27 09:23:02;;;;;;;20.20;19.17;;;;;;;;;;5035034;28;20460;-77
2022/10/27 09:25:31;;;;;;;19.33;18.23;;;;;;;;;;5036054;28;21001;-76
2022/10/27 09:28:00;;;;;;;19.83;18.87;;;;;;;;;;5036141;28;20791;-79
2022/10/27 09:30:33;;;;;;;19.43;18.20;;;;;;;;;;5035492;28;20450;-79
2022/10/27 09:33:01;;;;;;;19.67;18.47;;;;;;;;;;5035472;28;20494;-78
2022/10/27 09:35:29;;;;;;;20.73;19.20;;;;;;;;;;5035689;28;20842;-77
2022/10/27 09:37:58;;;;;;;19.70;18.50;;;;;;;;;;5036431;28;20416;-77
2022/10/27 09:40:26;;;;;;;19.27;18.27;;;;;;;;;;5037469;28;20450;-82
2022/10/27 09:42:56;;;;;;;19.40;18.37;;;;;;;;;;5039606;28;20465;-79
2022/10/27 09:45:24;;;;;;;20.13;18.93;;;;;;;;;;5035860;28;20540;-77
2022/10/27 09:47:53;;;;;;;19.40;18.20;;;;;;;;;;5038341;28;20850;-86
2022/10/27 09:50:22;;;;;;;19.30;18.10;;;;;;;;;;5038191;28;20416;-87
2022/10/27 09:52:49;;;;;;;21.10;19.20;;;;;;;;;;5036565;28;20991;-78
2022/10/27 09:55:17;;;;;;;17.80;17.00;;;;;;;;;;5034626;28;20444;-77
2022/10/27 09:57:46;;;;;;;19.17;18.17;;;;;;;;;;5035486;28;20461;-76
2022/10/27 10:00:26;;;;;;;18.63;17.63;;;;;;;;;;5035246;28;20461;-78
2022/10/27 10:02:58;;;;;;;22.23;20.70;;;;;;;;;;5034625;28;20515;-77
2022/10/27 10:05:27;;;;;;;18.17;17.17;;;;;;;;;;5039549;28;20436;-83
2022/10/27 10:08:03;;;;;;;18.40;17.40;;;;;;;;;;5038937;28;20449;-84
2022/10/27 10:10:30;;;;;;;17.53;16.73;;;;;;;;;;5040085;28;20872;-77
2022/10/27 10:13:08;;;;;;;19.87;18.57;;;;;;;;;;5033988;28;20504;-81
2022/10/27 10:15:38;;;;;;;19.50;18.30;;;;;;;;;;5035320;28;20517;-75
2022/10/27 10:18:08;;;;;;;19.00;17.70;;;;;;;;;;5034671;28;20430;-75
2022/10/27 10:20:37;;;;;;;18.30;17.20;;;;;;;;;;5034752;28;20451;-74
2022/10/27 10:23:07;;;;;;;18.43;17.20;;;;;;;;;;5033911;28;20477;-76
2022/10/27 10:25:35;;;;;;;18.00;16.80;;;;;;;;;;5034621;28;20946;-76
2022/10/27 10:28:05;;;;;;;20.10;18.70;;;;;;;;;;5034582;28;20434;-83
2022/10/27 10:30:33;;;;;;;18.67;17.67;;;;;;;;;;5039442;28;20457;-77
2022/10/27 10:33:04;;;;;;;17.80;16.90;;;;;;;;;;5037628;28;20494;-75
2022/10/27 10:35:42;;;;;;;18.47;17.47;;;;;;;;;;5036503;28;20761;-77
2022/10/27 10:38:25;;;;;;;18.50;17.60;;;;;;;;;;5034402;28;20988;-78
2022/10/27 10:40:57;;;;;;;18.73;17.73;;;;;;;;;;5034528;28;20449;-77
2022/10/27 10:43:24;;;;;;;19.47;18.27;;;;;;;;;;5035019;28;20472;-77
2022/10/27 10:45:52;;;;;;;19.20;18.00;;;;;;;;;;5034342;28;20470;-77
2022/10/27 10:48:39;;;;;;;19.50;18.10;;;;;;;;;;5034630;28;20452;-77
2022/10/27 10:51:07;;;;;;;19.03;17.87;;;;;;;;;;5036903;28;20897;-80
2022/10/27 10:53:37;;;;;;;18.83;17.63;;;;;;;;;;5036505;28;20501;-76
2022/10/27 10:56:06;;;;;;;18.23;17.10;;;;;;;;;;5035227;28;20415;-78
2022/10/27 10:58:35;;;;;;;17.43;16.53;;;;;;;;;;5034536;28;20437;-76
2022/10/27 11:01:04;;;;;;;18.97;17.50;;;;;;;;;;5033370;28;20430;-77
2022/10/27 11:03:34;;;;;;;18.10;17.00;;;;;;;;;;5033632;28;20490;-77
2022/10/27 11:06:04;;;;;;;18.50;17.50;;;;;;;;;;5035608;28;20793;-79
2022/10/27 11:08:36;;;;;;;18.80;17.70;;;;;;;;;;5034500;28;20433;-75
2022/10/27 11:11:04;;;;;;;19.33;18.23;;;;;;;;;;5033349;28;20426;-76
2022/10/27 11:13:37;;;;;;;18.43;17.33;;;;;;;;;;5033510;28;21002;-76
2022/10/27 11:16:06;;;;;;;18.47;17.47;;;;;;;;;;5033846;28;20970;-76
2022/10/27 11:18:35;;;;;;;17.77;16.87;;;;;;;;;;5033601;28;20451;-76
2022/10/27 11:21:06;;;;;;;17.80;16.90;;;;;;;;;;5033464;28;20451;-76
2022/10/27 11:23:38;;;;;;;18.87;17.70;;;;;;;;;;5032887;28;20513;-76
2022/10/27 11:26:06;;;;;;;18.10;17.10;;;;;;;;;;5033464;28;20465;-76
2022/10/27 11:28:35;;;;;;;19.60;18.40;;;;;;;;;;5033682;28;20458;-77
2022/10/27 11:31:06;;;;;;;19.47;18.30;;;;;;;;;;5033297;28;20458;-76
2022/10/27 11:33:38;;;;;;;19.03;17.70;;;;;;;;;;5032988;28;20489;-76
2022/10/27 11:36:11;;;;;;;18.60;17.50;;;;;;;;;;5033632;28;20438;-76
2022/10/27 11:38:41;;;;;;;18.80;17.60;;;;;;;;;;5033718;28;20450;-76
2022/10/27 11:41:11;;;;;;;18.43;17.10;;;;;;;;;;5032997;28;20441;-76
2022/10/27 11:43:42;;;;;;;21.33;18.03;;;;;;;;;;5033430;28;20454;-76
2022/10/27 11:46:12;;;;;;;17.80;16.90;;;;;;;;;;5033655;28;20439;-76
2022/10/27 11:48:42;;;;;;;19.70;18.03;;;;;;;;;;5034804;28;20442;-76
2022/10/27 11:51:15;;;;;;;19.70;18.50;;;;;;;;;;5032211;28;20466;-76
2022/10/27 11:53:43;;;;;;;18.07;17.07;;;;;;;;;;5033101;28;20493;-75
2022/10/27 11:56:20;;;;;;;18.80;17.67;;;;;;;;;;5032894;28;20451;-76
2022/10/27 11:58:53;;;;;;;18.97;17.77;;;;;;;;;;5033136;28;20438;-77
2022/10/27 12:01:29;;;;;;;20.77;19.27;;;;;;;;;;5031928;28;20436;-76
2022/10/27 12:04:06;;;;;;;20.13;18.73;;;;;;;;;;5033041;28;20449;-77
2022/10/27 12:06:39;;;;;;;20.07;18.57;;;;;;;;;;5033201;28;20441;-77
2022/10/27 12:09:12;;;;;;;19.20;18.10;;;;;;;;;;5032944;28;20422;-76
2022/10/27 12:11:46;;;;;;;19.53;18.30;;;;;;;;;;5032164;28;20903;-76
2022/10/27 12:14:15;;;;;;;19.33;17.70;;;;;;;;;;5031828;28;20502;-76
2022/10/27 12:16:46;;;;;;;18.73;17.63;;;;;;;;;;5032785;28;20450;-77
2022/10/27 12:19:16;;;;;;;19.07;17.80;;;;;;;;;;5032591;28;20407;-76
2022/10/27 12:21:47;;;;;;;21.23;19.63;;;;;;;;;;5032393;28;20455;-76
2022/10/27 12:24:17;;;;;;;19.20;17.83;;;;;;;;;;5032707;28;20485;-77
2022/10/27 12:26:47;;;;;;;20.03;18.40;;;;;;;;;;5032147;28;20501;-77
2022/10/27 12:29:16;;;;;;;19.33;18.13;;;;;;;;;;5032703;28;20458;-76
2022/10/27 12:31:54;;;;;;;20.20;18.83;;;;;;;;;;5032310;28;20493;-76
2022/10/27 12:34:23;;;;;;;19.47;18.27;;;;;;;;;;5032211;28;20997;-77
2022/10/27 12:36:54;;;;;;;19.90;18.60;;;;;;;;;;5032022;28;20478;-77
2022/10/27 12:39:27;;;;;;;19.90;18.40;;;;;;;;;;5032648;28;20417;-77
2022/10/27 12:41:58;;;;;;;19.50;18.10;;;;;;;;;;5032244;28;20430;-76
2022/10/27 12:44:32;;;;;;;19.57;18.17;;;;;;;;;;5032087;28;20469;-77
2022/10/27 12:47:05;;;;;;;20.40;18.77;;;;;;;;;;5032569;28;20439;-77
2022/10/27 12:49:37;;;;;;;19.90;18.60;;;;;;;;;;5032365;28;20821;-76
2022/10/27 12:52:11;;;;;;;19.20;17.90;;;;;;;;;;5031772;28;20520;-76
2022/10/27 12:54:46;;;;;;;19.30;18.10;;;;;;;;;;5032471;28;20502;-76
2022/10/27 12:57:18;;;;;;;20.47;18.87;;;;;;;;;;5032321;28;20416;-77
2022/10/27 12:59:50;;;;;;;19.73;18.43;;;;;;;;;;5032778;28;20826;-76
2022/10/27 13:02:18;;;;;;;19.63;18.47;;;;;;;;;;5030586;28;21256;-76
2022/10/27 13:05:01;;;;;;;19.40;18.17;;;;;;;;;;5032150;28;20454;-76
2022/10/27 13:07:40;;;;;;;20.73;18.80;;;;;;;;;;5032476;28;20409;-76
2022/10/27 13:10:25;;;;;;;21.80;20.10;;;;;;;;;;5032430;28;20450;-76
2022/10/27 13:13:00;;;;;;;20.53;19.03;;;;;;;;;;5031087;28;20473;-75
2022/10/27 13:15:42;;;;;;;19.80;18.57;;;;;;;;;;5032170;28;20478;-76
2022/10/27 13:18:15;;;;;;;19.93;18.67;;;;;;;;;;5032344;28;20467;-77
2022/10/27 13:20:48;;;;;;;19.40;18.00;;;;;;;;;;5032316;28;20453;-76
2022/10/27 13:23:22;;;;;;;22.23;20.40;;;;;;;;;;5031617;28;20485;-77
2022/10/27 13:25:55;;;;;;;20.43;18.90;;;;;;;;;;5033615;28;20486;-85
2022/10/27 13:28:24;;;;;;;19.43;18.13;;;;;;;;;;5040113;28;20435;-83
2022/10/27 13:30:54;;;;;;;20.33;19.03;;;;;;;;;;5043839;28;20459;-84
2022/10/27 13:33:32;;;;;;;19.87;18.70;;;;;;;;;;5041676;28;20499;-85
2022/10/27 13:36:14;;;;;;;19.77;18.17;;;;;;;;;;5040579;28;20809;-85
2022/10/27 13:38:43;;;;;;;20.57;19.37;;;;;;;;;;5039481;28;20426;-85
2022/10/27 13:41:10;;;;;;;20.47;19.00;;;;;;;;;;5040302;28;20431;-86
2022/10/27 13:43:46;;;;;;;20.00;18.57;;;;;;;;;;5039886;28;20543;-85
2022/10/27 13:46:13;;;;;;;20.03;18.73;;;;;;;;;;5037191;28;20459;-76
2022/10/27 13:48:48;;;;;;;20.77;19.50;;;;;;;;;;5035163;28;20439;-77
2022/10/27 13:51:51;;;;;;;20.90;19.40;;;;;;;;;;5035128;28;20481;-77
2022/10/27 13:54:37;;;;;;;19.97;18.87;;;;;;;;;;4993743;28;20572;-77
2022/10/27 13:57:24;;;;;;;21.27;19.47;;;;;;;;;;4993797;28;20468;-77
2022/10/27 13:59:53;;;;;;;21.40;20.00;;;;;;;;;;5024262;28;20458;-77
2022/10/27 14:02:24;;;;;;;21.50;20.10;;;;;;;;;;5034283;28;20449;-77
2022/10/27 14:04:55;;;;;;;20.77;19.00;;;;;;;;;;5035132;28;20431;-77
2022/10/27 14:07:22;;;;;;;21.27;19.80;;;;;;;;;;5035062;28;20417;-77
2022/10/27 14:09:51;;;;;;;21.67;19.77;;;;;;;;;;5035338;28;20455;-78
2022/10/27 14:12:23;;;;;;;21.00;19.70;;;;;;;;;;5034656;28;20459;-77
2022/10/27 14:14:51;;;;;;;21.10;19.37;;;;;;;;;;5034418;28;20548;-77
2022/10/27 14:17:20;;;;;;;20.40;19.30;;;;;;;;;;5034835;28;20462;-77
2022/10/27 14:19:52;;;;;;;21.70;20.30;;;;;;;;;;5035118;28;20443;-77
2022/10/27 14:22:27;;;;;;;21.67;19.83;;;;;;;;;;5033891;28;20443;-77
2022/10/27 14:24:57;;;;;;;21.93;20.53;;;;;;;;;;5039507;28;20496;-85
2022/10/27 14:27:26;;;;;;;21.80;20.50;;;;;;;;;;5038093;28;20850;-83
2022/10/27 14:29:54;;;;;;;20.87;19.57;;;;;;;;;;5039669;28;20809;-77
2022/10/27 14:32:22;;;;;;;21.77;20.17;;;;;;;;;;5034627;28;20459;-79